createdAt,value
2018-12-07T00:01:35.709Z,47.63
2018-12-07T00:04:06.256Z,36.80
2018-12-07T00:06:36.660Z,28.80
2018-12-07T00:09:07.330Z,35.03
2018-12-07T00:11:39.356Z,37.93
2018-12-07T00:14:09.805Z,41.07
2018-12-07T00:16:40.344Z,25.07
2018-12-07T00:19:11.443Z,32.37
2018-12-07T00:21:42.315Z,30.63
2018-12-07T00:24:13.552Z,47.40
2018-12-07T00:26:43.875Z,47.73
2018-12-07T00:29:14.618Z,34.77
2018-12-07T00:31:45.323Z,53.30
2018-12-07T00:34:15.700Z,50.67
2018-12-07T00:36:46.144Z,34.53
2018-12-07T00:39:16.558Z,51.50
2018-12-07T00:41:47.106Z,46.43
2018-12-07T00:44:17.158Z,49.43
2018-12-07T00:46:48.293Z,37.63
2018-12-07T00:49:18.834Z,53.73
2018-12-07T00:51:49.115Z,55.03
2018-12-07T00:54:19.643Z,43.10
2018-12-07T00:56:50.325Z,53.00
2018-12-07T00:59:20.482Z,39.20
2018-12-07T01:01:52.083Z,45.27
2018-12-07T01:04:23.696Z,36.10
2018-12-07T01:06:54.003Z,50.43
2018-12-07T01:09:25.816Z,44.70
2018-12-07T01:11:56.499Z,40.77
2018-12-07T01:14:26.463Z,27.10
2018-12-07T01:16:56.626Z,38.37
2018-12-07T01:19:27.759Z,41.70
2018-12-07T01:21:58.010Z,46.83
2018-12-07T01:24:28.068Z,53.50
2018-12-07T01:26:58.762Z,50.73
2018-12-07T01:29:29.715Z,54.03
2018-12-07T01:32:00.872Z,35.97
2018-12-07T01:34:31.175Z,47.20
2018-12-07T01:37:01.262Z,45.63
2018-12-07T01:39:31.456Z,49.10
2018-12-07T01:42:01.689Z,55.43
2018-12-07T01:44:32.255Z,53.50
2018-12-07T01:47:02.795Z,27.37
2018-12-07T01:49:32.509Z,54.87
2018-12-07T01:52:03.305Z,47.90
2018-12-07T01:54:33.910Z,51.37
2018-12-07T01:57:04.448Z,54.00
2018-12-07T01:59:34.817Z,52.00
2018-12-07T02:02:04.939Z,48.67
2018-12-07T02:04:35.243Z,50.17
2018-12-07T02:07:12.160Z,46.23
2018-12-07T02:09:42.151Z,41.43
2018-12-07T02:12:12.256Z,48.23
2018-12-07T02:14:42.355Z,46.33
2018-12-07T02:17:12.808Z,43.43
2018-12-07T02:19:42.889Z,55.23
2018-12-07T02:22:13.184Z,49.73
2018-12-07T02:24:43.428Z,36.80
2018-12-07T02:27:13.596Z,33.50
2018-12-07T02:29:43.604Z,56.80
2018-12-07T02:32:13.730Z,54.90
2018-12-07T02:34:43.552Z,45.93
2018-12-07T02:37:14.196Z,50.40
2018-12-07T02:39:44.526Z,39.90
2018-12-07T02:42:14.580Z,51.27
2018-12-07T02:44:44.921Z,55.73
2018-12-07T02:47:14.789Z,42.00
2018-12-07T02:49:45.985Z,58.73
2018-12-07T02:52:16.447Z,50.43
2018-12-07T02:54:47.048Z,57.73
2018-12-07T02:57:17.008Z,57.67
2018-12-07T02:59:47.371Z,59.33
2018-12-07T03:02:17.499Z,56.63
2018-12-07T03:04:47.726Z,53.50
2018-12-07T03:07:18.452Z,41.40
2018-12-07T03:09:49.305Z,38.63
2018-12-07T03:12:19.917Z,54.90
2018-12-07T03:14:50.990Z,55.27
2018-12-07T03:17:22.525Z,57.60
2018-12-07T03:19:52.946Z,60.10
2018-12-07T03:22:23.573Z,34.53
2018-12-07T03:24:53.859Z,58.70
2018-12-07T03:27:24.265Z,51.97
2018-12-07T03:29:54.877Z,55.63
2018-12-07T03:32:24.897Z,45.63
2018-12-07T03:34:55.341Z,49.63
2018-12-07T03:37:26.354Z,30.57
2018-12-07T03:39:57.444Z,65.43
2018-12-07T03:42:27.798Z,37.27
2018-12-07T03:44:57.905Z,39.80
2018-12-07T03:47:28.259Z,37.60
2018-12-07T03:49:58.613Z,61.30
2018-12-07T03:52:28.823Z,54.80
2018-12-07T03:54:58.944Z,54.93
2018-12-07T03:57:29.027Z,64.70
2018-12-07T03:59:59.820Z,64.27
2018-12-07T04:02:30.030Z,58.57
2018-12-07T04:05:00.163Z,48.70
2018-12-07T04:07:30.724Z,56.07
2018-12-07T04:10:00.677Z,59.30
2018-12-07T04:12:30.589Z,58.27
2018-12-07T04:15:00.345Z,55.00
2018-12-07T04:17:31.130Z,41.37
2018-12-07T04:20:01.537Z,69.23
2018-12-07T04:22:31.571Z,51.03
2018-12-07T04:25:01.609Z,41.17
2018-12-07T04:27:32.222Z,54.83
2018-12-07T04:30:13.165Z,55.47
2018-12-07T04:32:43.600Z,39.60
2018-12-07T04:35:14.223Z,45.70
2018-12-07T04:37:44.185Z,55.13
2018-12-07T04:40:14.040Z,48.43
2018-12-07T04:42:45.431Z,42.07
2018-12-07T04:45:15.529Z,51.90
2018-12-07T04:47:45.869Z,33.70
2018-12-07T04:50:15.911Z,58.43
2018-12-07T04:52:46.260Z,45.37
2018-12-07T04:55:16.317Z,58.83
2018-12-07T04:57:46.457Z,41.37
2018-12-07T05:00:16.523Z,53.57
2018-12-07T05:02:47.100Z,43.47
2018-12-07T05:05:16.921Z,49.33
2018-12-07T05:07:47.150Z,59.47
2018-12-07T05:10:17.548Z,52.43
2018-12-07T05:12:47.960Z,54.57
2018-12-07T05:15:18.405Z,29.33
2018-12-07T05:17:48.256Z,70.67
2018-12-07T05:20:18.764Z,58.77
2018-12-07T05:22:49.420Z,62.23
2018-12-07T05:25:25.969Z,66.43
2018-12-07T05:27:56.216Z,33.73
2018-12-07T05:30:28.662Z,39.37
2018-12-07T05:32:58.853Z,33.43
2018-12-07T05:35:29.565Z,49.60
2018-12-07T05:38:00.300Z,35.87
2018-12-07T05:40:30.496Z,37.50
2018-12-07T05:43:01.280Z,60.57
2018-12-07T05:45:31.790Z,40.30
2018-12-07T05:48:03.549Z,47.27
2018-12-07T05:50:34.002Z,44.57
2018-12-07T05:53:04.390Z,37.93
2018-12-07T05:55:34.209Z,37.30
2018-12-07T05:58:04.787Z,51.07
2018-12-07T06:00:34.746Z,40.67
2018-12-07T06:03:05.369Z,57.80
2018-12-07T06:05:35.940Z,45.57
2018-12-07T06:08:05.977Z,44.13
2018-12-07T06:10:36.809Z,50.33
2018-12-07T06:13:06.940Z,39.87
2018-12-07T06:15:37.209Z,36.73
2018-12-07T06:18:07.252Z,53.03
2018-12-07T06:20:37.426Z,47.17
2018-12-07T06:23:07.371Z,35.97
2018-12-07T06:25:38.487Z,35.97
2018-12-07T06:28:08.708Z,46.50
2018-12-07T06:30:39.013Z,31.90
2018-12-07T06:33:09.177Z,47.10
2018-12-07T06:35:39.319Z,42.20
2018-12-07T06:38:10.344Z,31.13
2018-12-07T06:40:40.711Z,47.73
2018-12-07T06:43:10.813Z,38.40
2018-12-07T06:45:41.136Z,40.93
2018-12-07T06:48:11.396Z,36.43
2018-12-07T06:50:43.041Z,40.50
2018-12-07T06:53:13.739Z,43.50
2018-12-07T06:55:44.063Z,42.17
2018-12-07T06:58:14.651Z,41.40
2018-12-07T07:00:44.916Z,40.47
2018-12-07T07:03:16.063Z,37.23
2018-12-07T07:05:46.267Z,42.40
2018-12-07T07:08:16.898Z,39.77
2018-12-07T07:10:47.525Z,43.97
2018-12-07T07:13:17.468Z,42.23
2018-12-07T07:15:47.380Z,32.60
2018-12-07T07:18:17.949Z,47.33
2018-12-07T07:20:48.024Z,37.13
2018-12-07T07:23:18.764Z,40.90
2018-12-07T07:25:49.326Z,43.73
2018-12-07T07:28:20.173Z,36.97
2018-12-07T07:30:51.023Z,44.97
2018-12-07T07:33:22.486Z,21.27
2018-12-07T07:35:52.624Z,35.97
2018-12-07T07:38:23.324Z,38.30
2018-12-07T07:40:54.020Z,42.33
2018-12-07T07:43:24.555Z,40.93
2018-12-07T07:45:54.893Z,33.70
2018-12-07T07:48:25.184Z,36.00
2018-12-07T07:50:55.157Z,35.80
2018-12-07T07:53:26.554Z,47.50
2018-12-07T07:55:57.209Z,43.30
2018-12-07T07:58:27.814Z,41.63
2018-12-07T08:00:59.229Z,37.63
2018-12-07T08:03:29.244Z,45.70
2018-12-07T08:05:59.604Z,45.80
2018-12-07T08:08:29.656Z,36.20
2018-12-07T08:10:59.644Z,45.23
2018-12-07T08:13:29.825Z,41.30
2018-12-07T08:16:00.132Z,52.23
2018-12-07T08:18:30.615Z,52.97
2018-12-07T08:21:00.973Z,46.53
2018-12-07T08:23:31.073Z,51.73
2018-12-07T08:26:01.302Z,50.80
2018-12-07T08:28:32.473Z,53.67
2018-12-07T08:31:03.668Z,54.10
2018-12-07T08:33:34.343Z,50.93
2018-12-07T08:36:04.715Z,60.80
2018-12-07T08:38:35.207Z,52.70
2018-12-07T08:41:06.104Z,55.33
2018-12-07T08:43:36.891Z,60.40
2018-12-07T08:46:06.758Z,59.23
2018-12-07T08:48:37.030Z,54.00
2018-12-07T08:51:07.525Z,60.07
2018-12-07T08:53:37.775Z,56.83
2018-12-07T08:56:07.913Z,60.27
2018-12-07T08:58:38.314Z,57.63
2018-12-07T09:01:08.816Z,59.00
2018-12-07T09:03:39.578Z,41.87
2018-12-07T09:06:09.608Z,53.57
2018-12-07T09:08:39.682Z,59.23
2018-12-07T09:11:10.269Z,55.87
2018-12-07T09:13:40.685Z,53.70
2018-12-07T09:16:11.176Z,53.60
2018-12-07T09:18:42.480Z,51.17
2018-12-07T09:21:12.675Z,49.07
2018-12-07T09:23:49.395Z,55.93
2018-12-07T09:26:15.197Z,55.20
2018-12-07T09:28:45.214Z,59.03
2018-12-07T09:31:15.455Z,58.90
2018-12-07T09:33:45.587Z,58.23
2018-12-07T09:36:16.232Z,64.77
2018-12-07T09:38:46.648Z,55.10
2018-12-07T09:41:16.616Z,59.33
2018-12-07T09:43:47.076Z,61.73
2018-12-07T09:46:17.663Z,61.53
2018-12-07T09:48:47.827Z,63.37
2018-12-07T09:51:18.045Z,72.27
2018-12-07T09:53:48.501Z,79.20
2018-12-07T09:56:18.744Z,74.73
2018-12-07T09:58:49.112Z,71.90
2018-12-07T10:01:19.097Z,73.57
2018-12-07T10:03:49.622Z,73.03
2018-12-07T10:06:20.641Z,75.33
2018-12-07T10:08:51.494Z,76.60
2018-12-07T10:11:22.127Z,67.73
2018-12-07T10:13:52.460Z,71.80
2018-12-07T10:16:22.776Z,66.60
2018-12-07T10:18:52.859Z,67.47
2018-12-07T10:21:23.015Z,69.03
2018-12-07T10:23:52.997Z,62.27
2018-12-07T10:26:23.235Z,58.70
2018-12-07T10:28:53.347Z,58.37
2018-12-07T10:31:23.694Z,53.73
2018-12-07T10:33:54.247Z,60.47
2018-12-07T10:36:25.632Z,59.83
2018-12-07T10:38:56.231Z,54.33
2018-12-07T10:41:26.417Z,57.07
2018-12-07T10:43:57.255Z,54.50
2018-12-07T10:46:27.570Z,54.53
2018-12-07T10:48:57.781Z,56.00
2018-12-07T10:51:28.333Z,46.33
2018-12-07T10:53:58.442Z,49.07
2018-12-07T10:56:28.620Z,49.43
2018-12-07T10:58:58.946Z,48.77
2018-12-07T11:01:33.777Z,51.50
2018-12-07T11:04:08.887Z,50.03
2018-12-07T11:06:44.232Z,47.33
2018-12-07T11:09:19.885Z,47.07
2018-12-07T11:11:55.119Z,45.67
2018-12-07T11:15:33.048Z,45.70
2018-12-07T11:18:08.399Z,43.80
2018-12-07T11:20:43.951Z,46.13
2018-12-07T11:23:19.661Z,49.33
2018-12-07T11:25:54.838Z,41.53
2018-12-07T11:28:30.166Z,43.60
2018-12-07T11:31:05.456Z,41.77
2018-12-07T11:33:40.859Z,41.87
2018-12-07T11:36:11.070Z,40.20
2018-12-07T11:38:40.939Z,42.47
2018-12-07T11:41:14.154Z,44.10
2018-12-07T11:43:46.788Z,37.53
2018-12-07T11:46:17.980Z,36.30
2018-12-07T11:48:48.083Z,37.97
2018-12-07T11:51:18.851Z,37.40
2018-12-07T11:53:49.370Z,39.27
2018-12-07T11:58:54.903Z,39.00
2018-12-07T12:01:25.076Z,37.17
2018-12-07T12:03:55.064Z,35.97
2018-12-07T12:06:25.679Z,35.13
2018-12-07T12:08:56.092Z,34.80
2018-12-07T12:11:29.009Z,37.63
2018-12-07T12:13:59.057Z,37.50
2018-12-07T12:16:28.982Z,34.83
2018-12-07T12:18:59.213Z,35.60
2018-12-07T12:21:29.899Z,35.63
2018-12-07T12:24:00.592Z,34.40
2018-12-07T12:26:30.786Z,40.83
2018-12-07T12:29:01.076Z,35.80
2018-12-07T12:31:31.927Z,36.70
2018-12-07T12:34:02.461Z,33.20
2018-12-07T12:36:32.382Z,36.10
2018-12-07T12:39:06.100Z,35.77
2018-12-07T12:41:37.035Z,34.40
2018-12-07T12:44:07.477Z,34.00
2018-12-07T12:46:37.926Z,33.40
2018-12-07T12:49:09.082Z,33.73
2018-12-07T12:51:39.760Z,34.73
2018-12-07T12:54:10.213Z,35.53
2018-12-07T12:56:41.301Z,39.17
2018-12-07T12:59:11.621Z,34.73
2018-12-07T13:01:41.747Z,35.77
2018-12-07T13:04:12.478Z,37.63
2018-12-07T13:06:43.765Z,37.03
2018-12-07T13:09:13.808Z,35.67
2018-12-07T13:11:44.246Z,38.57
2018-12-07T13:14:14.397Z,36.30
2018-12-07T13:16:44.655Z,37.80
2018-12-07T13:19:15.308Z,39.20
2018-12-07T13:21:45.574Z,39.77
2018-12-07T13:24:16.027Z,44.33
2018-12-07T13:26:46.259Z,38.07
2018-12-07T13:29:15.976Z,38.93
2018-12-07T13:31:47.121Z,38.17
2018-12-07T13:34:17.578Z,36.83
2018-12-07T13:36:48.171Z,40.60
2018-12-07T13:39:18.813Z,41.30
2018-12-07T13:41:50.504Z,40.43
2018-12-07T13:44:22.179Z,41.03
2018-12-07T13:46:52.715Z,43.03
2018-12-07T13:49:24.181Z,40.63
2018-12-07T13:51:55.396Z,40.10
2018-12-07T13:54:26.152Z,39.93
2018-12-07T13:56:57.304Z,38.87
2018-12-07T13:59:27.877Z,38.67
2018-12-07T14:01:59.341Z,38.03
2018-12-07T14:04:36.246Z,43.73
2018-12-07T14:07:06.457Z,42.93
2018-12-07T14:09:37.179Z,43.43
2018-12-07T14:12:13.603Z,44.83
2018-12-07T14:14:44.040Z,44.90
2018-12-07T14:17:14.039Z,43.87
2018-12-07T14:19:44.269Z,43.43
2018-12-07T14:22:15.230Z,47.37
2018-12-07T14:24:45.647Z,44.33
2018-12-07T14:27:16.293Z,44.50
2018-12-07T14:29:46.899Z,46.20
2018-12-07T14:32:17.492Z,48.27
2018-12-07T14:34:48.141Z,43.73
2018-12-07T14:37:18.989Z,48.03
2018-12-07T14:39:49.715Z,49.80
2018-12-07T14:42:20.398Z,49.70
2018-12-07T14:44:50.821Z,45.70
2018-12-07T14:47:22.154Z,51.50
2018-12-07T14:49:52.843Z,46.07
2018-12-07T14:52:23.187Z,49.90
2018-12-07T14:54:55.279Z,46.83
2018-12-07T14:57:25.653Z,48.83
2018-12-07T14:59:57.340Z,55.07
2018-12-07T15:02:27.518Z,50.20
2018-12-07T15:04:58.600Z,86.43
2018-12-07T15:07:28.957Z,51.13
2018-12-07T15:09:59.818Z,55.70
2018-12-07T15:12:30.250Z,50.53
2018-12-07T15:15:00.771Z,55.73
2018-12-07T15:17:31.188Z,51.00
2018-12-07T15:20:01.829Z,56.73
2018-12-07T15:22:31.958Z,53.33
2018-12-07T15:25:02.699Z,72.23
2018-12-07T15:27:32.798Z,51.47
2018-12-07T15:30:02.819Z,57.97
2018-12-07T15:32:33.175Z,54.03
2018-12-07T15:35:03.404Z,54.27
2018-12-07T15:37:33.982Z,51.87
2018-12-07T15:40:05.474Z,51.57
2018-12-07T15:42:35.654Z,48.07
2018-12-07T15:45:07.210Z,43.87
2018-12-07T15:47:37.487Z,39.47
2018-12-07T15:50:09.486Z,40.53
2018-12-07T15:52:40.012Z,44.00
2018-12-07T15:55:10.561Z,45.20
2018-12-07T15:57:43.677Z,44.13
2018-12-07T16:00:14.733Z,47.80
2018-12-07T16:02:44.648Z,44.90
2018-12-07T16:05:15.699Z,46.67
2018-12-07T16:07:50.383Z,53.80
2018-12-07T16:10:26.012Z,56.07
2018-12-07T16:12:56.326Z,60.37
2018-12-07T16:15:27.214Z,61.60
2018-12-07T16:17:58.319Z,62.20
2018-12-07T16:20:29.194Z,68.20
2018-12-07T16:23:03.064Z,70.27
2018-12-07T16:25:33.347Z,75.33
2018-12-07T16:28:04.312Z,79.90
2018-12-07T16:30:35.259Z,70.87
2018-12-07T16:33:06.920Z,71.90
2018-12-07T16:35:39.632Z,87.33
2018-12-07T16:38:09.790Z,83.40
2018-12-07T16:40:42.505Z,87.23
2018-12-07T16:43:13.589Z,76.53
2018-12-07T16:45:44.087Z,77.87
2018-12-07T16:48:14.496Z,85.67
2018-12-07T16:50:46.579Z,74.50
2018-12-07T16:53:16.960Z,75.57
2018-12-07T16:55:47.252Z,67.83
2018-12-07T16:58:17.967Z,69.60
2018-12-07T17:00:48.678Z,67.57
2018-12-07T17:03:19.333Z,68.93
2018-12-07T17:05:50.762Z,69.97
2018-12-07T17:08:21.375Z,70.20
2018-12-07T17:10:52.392Z,62.70
2018-12-07T17:13:22.772Z,68.30
2018-12-07T17:15:53.735Z,65.27
2018-12-07T17:18:24.359Z,66.13
2018-12-07T17:20:55.261Z,66.77
2018-12-07T17:23:25.497Z,68.30
2018-12-07T17:25:57.428Z,67.23
2018-12-07T17:28:28.160Z,71.57
2018-12-07T17:31:00.204Z,67.63
2018-12-07T17:33:30.638Z,71.17
2018-12-07T17:36:04.065Z,69.30
2018-12-07T17:38:34.369Z,69.50
2018-12-07T17:41:04.905Z,64.53
2018-12-07T17:43:35.483Z,60.27
2018-12-07T17:46:06.706Z,63.70
2018-12-07T17:48:37.078Z,60.90
2018-12-07T17:51:08.627Z,60.87
2018-12-07T17:53:39.379Z,57.00
2018-12-07T17:56:10.277Z,52.00
2018-12-07T17:58:40.875Z,53.07
2018-12-07T18:01:11.702Z,47.80
2018-12-07T18:03:42.417Z,50.97
2018-12-07T18:06:13.689Z,54.90
2018-12-07T18:08:44.570Z,47.53
2018-12-07T18:11:15.780Z,51.00
2018-12-07T18:13:48.075Z,43.47
2018-12-07T18:16:19.156Z,45.70
2018-12-07T18:18:49.571Z,42.57
2018-12-07T18:21:21.022Z,42.77
2018-12-07T18:23:51.854Z,44.40
2018-12-07T18:26:23.031Z,42.10
2018-12-07T18:28:53.549Z,39.27
2018-12-07T18:31:24.696Z,37.90
2018-12-07T18:33:55.290Z,37.33
2018-12-07T18:36:26.768Z,35.73
2018-12-07T18:38:57.748Z,40.10
2018-12-07T18:41:28.420Z,37.83
2018-12-07T18:43:59.319Z,41.50
2018-12-07T18:46:30.139Z,51.07
2018-12-07T18:49:01.358Z,35.23
2018-12-07T18:51:32.224Z,39.37
2018-12-07T18:54:12.986Z,39.20
2018-12-07T18:56:47.456Z,40.50
2018-12-07T18:59:18.696Z,37.63
2018-12-07T19:01:53.524Z,40.33
2018-12-07T19:04:25.515Z,32.97
2018-12-07T19:06:56.505Z,42.10
2018-12-07T19:09:28.372Z,41.77
2018-12-07T19:12:03.293Z,40.70
2018-12-07T19:14:35.161Z,39.27
2018-12-07T19:17:07.413Z,32.03
2018-12-07T19:19:39.016Z,41.63
2018-12-07T19:22:09.448Z,41.73
2018-12-07T19:24:44.441Z,39.70
2018-12-07T19:27:14.765Z,41.27
2018-12-07T19:29:50.554Z,40.07
2018-12-07T19:32:21.405Z,40.03
2018-12-07T19:34:53.572Z,41.40
2018-12-07T19:37:24.917Z,39.90
2018-12-07T19:39:56.647Z,40.67
2018-12-07T19:42:28.889Z,41.63
2018-12-07T19:44:59.179Z,38.47
2018-12-07T19:47:30.252Z,42.33
2018-12-07T19:50:03.593Z,40.10
2018-12-07T19:52:34.778Z,41.13
2018-12-07T19:55:06.354Z,39.10
2018-12-07T19:57:37.597Z,34.90
2018-12-07T20:00:11.097Z,34.03
2018-12-07T20:02:41.956Z,39.60
2018-12-07T20:05:13.508Z,37.60
2018-12-07T20:07:45.372Z,39.60
2018-12-07T20:10:16.552Z,42.53
2018-12-07T20:12:50.729Z,35.53
2018-12-07T20:15:21.197Z,40.60
2018-12-07T20:17:51.686Z,40.23
2018-12-07T20:20:24.260Z,36.33
2018-12-07T20:22:55.119Z,32.43
2018-12-07T20:25:27.095Z,41.70
2018-12-07T20:27:57.508Z,45.63
2018-12-07T20:30:28.012Z,44.93
2018-12-07T20:32:58.593Z,36.70
2018-12-07T20:35:30.090Z,40.20
2018-12-07T20:38:02.602Z,39.77
2018-12-07T20:40:36.522Z,41.33
2018-12-07T20:43:07.990Z,41.47
2018-12-07T20:45:39.041Z,40.67
2018-12-07T20:48:10.019Z,42.43
2018-12-07T20:50:41.142Z,42.10
2018-12-07T20:53:11.807Z,38.57
2018-12-07T20:55:42.459Z,44.23
2018-12-07T20:58:13.067Z,42.70
2018-12-07T21:00:44.875Z,41.20
2018-12-07T21:03:16.264Z,42.33
2018-12-07T21:06:32.497Z,44.20
2018-12-07T21:09:35.228Z,42.83
2018-12-07T21:13:22.358Z,43.03
2018-12-07T21:15:53.789Z,44.33
2018-12-07T21:18:24.787Z,46.00
2018-12-07T21:20:55.717Z,44.83
2018-12-07T21:23:26.373Z,37.87
2018-12-07T21:26:01.982Z,42.37
2018-12-07T21:28:32.177Z,45.07
2018-12-07T21:31:04.445Z,40.37
2018-12-07T21:34:46.493Z,49.23
2018-12-07T21:37:20.123Z,47.90
2018-12-07T21:40:00.036Z,50.30
2018-12-07T21:42:30.946Z,46.53
2018-12-07T21:48:19.575Z,47.23
2018-12-07T22:01:06.913Z,52.43
2018-12-07T22:03:39.967Z,49.13
2018-12-07T22:06:13.576Z,50.83
2018-12-07T22:08:46.889Z,55.87
2018-12-07T22:11:18.151Z,54.43
2018-12-07T22:13:50.440Z,53.67
2018-12-07T22:16:24.999Z,56.67
2018-12-07T22:18:58.920Z,58.43
2018-12-07T22:21:34.221Z,58.50
2018-12-07T22:24:05.913Z,56.63
2018-12-07T22:26:36.997Z,53.47
2018-12-07T22:29:09.239Z,54.70
2018-12-07T22:31:39.936Z,47.47
2018-12-07T22:34:10.612Z,56.63
2018-12-07T22:36:45.688Z,52.67
2018-12-07T22:39:16.325Z,58.00
2018-12-07T22:41:47.092Z,50.10
2018-12-07T22:44:19.267Z,51.43
2018-12-07T22:46:50.803Z,53.03
2018-12-07T22:49:21.958Z,52.10
2018-12-07T22:51:53.091Z,55.93
2018-12-07T22:54:23.964Z,60.63
2018-12-07T22:56:55.832Z,56.37
2018-12-07T22:59:26.256Z,51.53
2018-12-07T23:01:57.566Z,57.20
2018-12-07T23:04:28.489Z,61.80
2018-12-07T23:06:59.743Z,53.20
2018-12-07T23:09:30.602Z,47.70
2018-12-07T23:14:43.056Z,60.57
2018-12-07T23:17:13.832Z,56.73
2018-12-07T23:19:44.900Z,60.17
2018-12-07T23:22:16.367Z,53.07
2018-12-07T23:24:46.667Z,57.60
2018-12-07T23:27:17.204Z,62.40
2018-12-07T23:29:48.258Z,49.27
2018-12-07T23:32:20.052Z,50.27
2018-12-07T23:34:55.444Z,62.80
2018-12-07T23:37:26.009Z,50.13
2018-12-07T23:39:56.729Z,56.93
2018-12-07T23:42:29.831Z,59.83
2018-12-07T23:45:01.755Z,32.33
2018-12-07T23:47:32.879Z,61.77
2018-12-07T23:50:04.255Z,51.20
2018-12-07T23:52:33.907Z,59.23
2018-12-07T23:55:05.259Z,52.10
2018-12-07T23:57:35.686Z,54.13
